Terminal Aerodrome Forecast
Issued by NWS Sterling, VA

Current Version | Previous Version | Graphics & Text | Print | Product List | Glossary On
Versions: 1 2 3 4 5 6 7 8 9 10 11 12
000
FTUS41 KLWX 242332
TAFMRB
TAF
KMRB 242332Z 2500/2524 12006KT P6SM BKN080
     FM250600 20005KT P6SM BKN200
     FM251600 20010G18KT P6SM FEW200=

USA.gov is the U.S. government's official web portal to all federal, state and local government web resources and services.